Time;durP1;ratioP1;P1;durP2;ratioP2;P2;SDS_P1;SDS_P2;PMS_P1;PMS_P2;Temp;Humidity;BMP_temperature;BMP_pressure;BME280_temperature;BME280_humidity;BME280_pressure;Samples;Min_cycle;Max_cycle;Signal;HPM_P1;HPM_P2
2021/01/21 00:00:20;;;;;;;81.13;36.08;;;;;;;-3.07;72.36;94070.22;5114679;28;20024;-46
2021/01/21 00:02:45;;;;;;;65.18;28.63;;;;;;;-3.05;71.20;94071.75;5114815;28;20476;-45
2021/01/21 00:05:11;;;;;;;61.72;24.90;;;;;;;-3.05;71.72;94072.47;5114646;28;20085;-46
2021/01/21 00:07:37;;;;;;;57.00;24.95;;;;;;;-3.02;71.30;94076.22;5114556;28;20484;-46
2021/01/21 00:10:03;;;;;;;31.30;16.98;;;;;;;-3.22;71.57;94073.94;5114533;28;20026;-46
2021/01/21 00:12:28;;;;;;;29.42;14.55;;;;;;;-3.16;71.16;94080.25;5113249;28;20027;-45
2021/01/21 00:14:54;;;;;;;32.75;14.43;;;;;;;-3.13;71.48;94079.34;5113879;28;20516;-44
2021/01/21 00:17:22;;;;;;;33.85;14.30;;;;;;;-3.26;71.48;94078.72;5114114;28;20088;-46
2021/01/21 00:19:47;;;;;;;32.77;14.90;;;;;;;-3.16;71.10;94083.69;5114485;28;20024;-45
2021/01/21 00:22:13;;;;;;;30.55;15.73;;;;;;;-3.22;70.92;94082.03;5114461;28;20260;-46
2021/01/21 00:24:38;;;;;;;34.15;14.30;;;;;;;-3.11;70.64;94082.38;5114343;28;20499;-46
2021/01/21 00:27:04;;;;;;;31.02;13.50;;;;;;;-3.01;70.47;94089.28;5114158;28;20034;-45
2021/01/21 00:29:29;;;;;;;25.75;12.40;;;;;;;-3.20;71.05;94080.38;5113953;27;20070;-46
2021/01/21 00:31:54;;;;;;;35.00;16.05;;;;;;;-3.24;71.74;94079.03;5114148;28;20023;-45
2021/01/21 00:34:20;;;;;;;27.00;13.68;;;;;;;-3.35;71.99;94076.72;5114137;28;20032;-44
2021/01/21 00:36:45;;;;;;;34.72;15.05;;;;;;;-3.43;71.96;94064.72;5114041;28;20024;-47
2021/01/21 00:39:11;;;;;;;35.08;15.43;;;;;;;-3.42;72.12;94078.97;5113986;28;20036;-46
2021/01/21 00:41:37;;;;;;;33.15;14.30;;;;;;;-3.45;71.63;94072.50;5114137;28;20397;-47
2021/01/21 00:44:02;;;;;;;34.42;14.88;;;;;;;-3.53;70.92;94076.66;5113790;28;20125;-45
2021/01/21 00:46:27;;;;;;;29.73;12.35;;;;;;;-3.44;71.13;94074.00;5113766;28;20035;-45
2021/01/21 00:48:53;;;;;;;20.92;9.63;;;;;;;-3.46;69.70;94075.63;5114064;28;20122;-44
2021/01/21 00:51:19;;;;;;;16.60;10.00;;;;;;;-3.36;69.73;94069.09;5113690;28;20088;-45
2021/01/21 00:53:46;;;;;;;20.05;10.80;;;;;;;-3.62;70.75;94065.06;5113714;28;20439;-47
2021/01/21 00:56:11;;;;;;;22.85;12.65;;;;;;;-3.66;71.31;94069.84;5113569;28;20034;-44
2021/01/21 00:58:37;;;;;;;32.00;15.00;;;;;;;-3.77;71.17;94062.16;5113667;28;20023;-45
2021/01/21 01:01:02;;;;;;;31.45;13.77;;;;;;;-3.58;70.70;94068.38;5113643;28;20076;-45
2021/01/21 01:03:28;;;;;;;29.45;14.95;;;;;;;-3.74;71.10;94063.97;5113781;28;20047;-46
2021/01/21 01:05:53;;;;;;;31.65;15.43;;;;;;;-3.74;71.00;94065.91;5113381;28;20463;-45
2021/01/21 01:08:18;;;;;;;32.17;13.52;;;;;;;-3.81;70.66;94069.59;5113480;28;20508;-45
2021/01/21 01:10:44;;;;;;;33.80;14.68;;;;;;;-3.72;70.54;94064.25;5113322;28;20405;-44
2021/01/21 01:13:09;;;;;;;27.02;13.05;;;;;;;-3.94;70.70;94056.22;5113378;28;20470;-46
2021/01/21 01:15:35;;;;;;;21.40;10.35;;;;;;;-3.81;70.49;94066.91;5113337;28;20016;-45
2021/01/21 01:18:00;;;;;;;17.70;8.52;;;;;;;-3.82;70.34;94060.03;5113374;28;20031;-46
2021/01/21 01:20:26;;;;;;;20.38;9.82;;;;;;;-3.84;69.75;94051.63;5113187;28;20510;-46
2021/01/21 01:22:53;;;;;;;26.63;12.40;;;;;;;-3.77;70.48;94059.47;5113189;28;20468;-45
2021/01/21 01:25:22;;;;;;;31.05;13.90;;;;;;;-3.71;69.97;94057.69;5113060;28;20027;-45
2021/01/21 01:27:47;;;;;;;;;;;;;;;-3.67;69.84;94052.16;5113500;28;20092;-45
2021/01/21 01:30:13;;;;;;;24.38;12.25;;;;;;;-3.86;70.37;94054.00;5112454;28;20365;-46
2021/01/21 01:32:39;;;;;;;26.58;12.05;;;;;;;-3.82;70.38;94049.25;5111733;28;20024;-47
2021/01/21 01:35:06;;;;;;;23.60;10.70;;;;;;;-3.89;70.23;94049.50;5113060;28;20106;-44
2021/01/21 01:37:31;;;;;;;21.95;11.10;;;;;;;-3.99;70.38;94053.34;5113070;28;20058;-45
2021/01/21 01:39:57;;;;;;;19.45;8.75;;;;;;;-3.88;70.10;94030.16;5112725;28;20024;-46
2021/01/21 01:42:22;;;;;;;18.55;9.38;;;;;;;-3.87;70.24;94041.72;5112757;28;20023;-45
2021/01/21 01:44:48;;;;;;;17.13;8.82;;;;;;;-3.96;70.61;94047.81;5112867;28;20077;-46
2021/01/21 01:47:14;;;;;;;14.45;8.63;;;;;;;-3.67;70.07;94039.41;5112707;28;20019;-47
2021/01/21 01:49:39;;;;;;;16.30;7.57;;;;;;;-3.94;70.96;94044.66;5111383;28;20053;-47
2021/01/21 01:52:05;;;;;;;17.58;9.13;;;;;;;-4.03;71.76;94037.28;5112620;28;20508;-46
2021/01/21 01:54:30;;;;;;;16.02;8.20;;;;;;;-4.23;72.88;94038.81;5112470;28;20382;-45
2021/01/21 01:57:01;;;;;;;16.20;8.43;;;;;;;-4.05;72.95;94036.97;5112422;28;20031;-46
2021/01/21 01:59:26;;;;;;;17.48;7.30;;;;;;;-3.91;72.11;94038.41;5112563;28;20034;-45
2021/01/21 02:01:52;;;;;;;17.10;7.50;;;;;;;-3.98;72.01;94033.25;5111174;28;20040;-44
2021/01/21 02:04:18;;;;;;;14.55;6.95;;;;;;;-3.88;71.71;94019.38;5112582;28;20035;-46
2021/01/21 02:06:43;;;;;;;22.08;9.77;;;;;;;-3.87;70.89;94020.13;5112340;28;20118;-45
2021/01/21 02:09:08;;;;;;;51.53;18.15;;;;;;;-3.99;71.78;94029.06;5112160;28;20027;-45
2021/01/21 02:11:47;;;;;;;50.80;22.35;;;;;;;-4.03;71.43;94028.44;5112461;28;20030;-45
2021/01/21 02:14:22;;;;;;;49.33;20.02;;;;;;;-4.01;71.36;94026.06;5112395;28;20046;-46
2021/01/21 02:17:02;;;;;;;55.55;23.48;;;;;;;-4.08;71.11;94029.78;5111117;28;20085;-45
2021/01/21 02:19:55;;;;;;;53.45;26.42;;;;;;;-4.00;70.92;94022.91;5111281;28;20479;-45
2021/01/21 02:22:59;;;;;;;42.35;19.48;;;;;;;-4.07;71.11;94023.16;5112068;28;20165;-45
2021/01/21 02:25:28;;;;;;;42.75;20.27;;;;;;;-4.06;70.70;93999.66;5112176;28;20024;-46
2021/01/21 02:28:14;;;;;;;50.17;19.77;;;;;;;-3.96;70.41;94015.44;5111965;28;20432;-44
2021/01/21 02:30:50;;;;;;;44.40;18.60;;;;;;;-3.99;70.06;94007.50;5110688;28;20051;-46
2021/01/21 02:33:20;;;;;;;43.67;17.35;;;;;;;-4.21;70.64;94010.22;5112087;28;20471;-44
2021/01/21 02:35:49;;;;;;;60.63;20.80;;;;;;;-4.16;70.38;94015.03;5110808;28;20502;-46
2021/01/21 02:38:14;;;;;;;;;;;;;;;-4.40;71.23;94022.09;5110786;28;20083;-44
2021/01/21 02:40:40;;;;;;;41.95;18.50;;;;;;;-4.32;70.41;94023.31;5110776;28;20005;-45
2021/01/21 02:43:09;;;;;;;36.78;19.55;;;;;;;-4.30;71.37;94020.94;5111921;28;20047;-46
2021/01/21 02:45:35;;;;;;;55.30;22.10;;;;;;;-4.29;71.12;94013.63;5111833;28;20028;-46
2021/01/21 02:48:01;;;;;;;43.97;19.45;;;;;;;-4.35;70.72;94023.47;5111845;28;20401;-46
2021/01/21 02:50:26;;;;;;;35.55;17.92;;;;;;;-4.45;70.16;94021.88;5111735;28;20020;-45
2021/01/21 02:52:56;;;;;;;33.60;16.60;;;;;;;-4.63;70.47;94023.25;5111849;28;20035;-45
2021/01/21 02:55:25;;;;;;;34.65;15.38;;;;;;;-4.61;70.58;94031.66;5111679;28;20484;-45
2021/01/21 02:58:03;;;;;;;41.47;18.10;;;;;;;-4.45;70.41;94024.56;5111749;28;20499;-46
2021/01/21 03:00:30;;;;;;;39.05;15.23;;;;;;;-4.50;70.91;94019.75;5110714;28;20530;-46
2021/01/21 03:02:59;;;;;;;31.40;14.65;;;;;;;-4.48;70.56;94022.78;5110505;28;20031;-45
2021/01/21 03:05:25;;;;;;;;;;;;;;;-4.40;69.37;94026.72;5112096;28;20035;-49
2021/01/21 03:07:50;;;;;;;35.60;15.75;;;;;;;-4.50;70.23;94028.56;5110643;28;19912;-47
2021/01/21 03:10:20;;;;;;;33.67;15.30;;;;;;;-4.38;69.73;94018.94;5110525;28;20024;-45
2021/01/21 03:12:53;;;;;;;37.50;15.52;;;;;;;-4.36;69.41;94021.94;5111748;28;20030;-46
2021/01/21 03:15:19;;;;;;;55.10;20.63;;;;;;;-4.38;69.98;94017.00;5111526;28;20463;-44
2021/01/21 03:17:45;;;;;;;48.92;22.38;;;;;;;-4.67;70.79;94025.31;5111636;28;20106;-44
2021/01/21 03:20:11;;;;;;;65.28;20.45;;;;;;;-4.57;70.91;94023.47;5111444;28;20031;-45
2021/01/21 03:22:36;;;;;;;58.65;19.77;;;;;;;-4.52;71.34;94024.81;5111548;28;20032;-45
2021/01/21 03:25:02;;;;;;;47.17;20.00;;;;;;;-4.51;71.69;94023.63;5111491;28;20049;-45
2021/01/21 03:27:28;;;;;;;39.35;16.42;;;;;;;-4.38;71.24;94024.34;5111506;28;20020;-45
2021/01/21 03:29:53;;;;;;;43.28;15.40;;;;;;;-4.53;70.83;94024.09;5111291;28;20050;-46
2021/01/21 03:32:19;;;;;;;34.60;15.15;;;;;;;-4.55;70.76;94028.41;5111387;28;20061;-44
2021/01/21 03:34:46;;;;;;;40.47;17.35;;;;;;;-4.49;70.60;94022.00;5111547;28;20050;-46
2021/01/21 03:37:11;;;;;;;44.67;20.67;;;;;;;-4.41;70.24;94017.13;5111352;28;20080;-46
2021/01/21 03:39:37;;;;;;;60.25;24.08;;;;;;;-4.47;70.35;94018.88;5111389;28;20027;-46
2021/01/21 03:42:02;;;;;;;52.65;24.85;;;;;;;-4.51;71.17;94020.94;5111269;28;20027;-46
2021/01/21 03:44:28;;;;;;;57.00;23.60;;;;;;;-4.36;70.95;94027.34;5111486;28;20110;-46
2021/01/21 03:46:53;;;;;;;57.78;22.90;;;;;;;-4.53;70.97;94023.31;5111416;28;20457;-44
2021/01/21 03:49:18;;;;;;;56.15;24.50;;;;;;;-4.48;71.46;94020.09;5111169;28;20481;-45
2021/01/21 03:51:44;;;;;;;59.72;23.27;;;;;;;-4.39;71.17;94018.19;5113792;28;20020;-44
2021/01/21 03:54:09;;;;;;;52.45;23.25;;;;;;;-4.65;71.48;94017.56;5114759;28;20031;-45
2021/01/21 03:56:35;;;;;;;49.13;18.88;;;;;;;-4.48;71.58;94028.16;5114842;28;20111;-44
2021/01/21 03:59:00;;;;;;;40.60;19.10;;;;;;;-4.55;70.60;94028.41;5114800;28;20033;-45
2021/01/21 04:01:25;;;;;;;33.13;14.82;;;;;;;-4.72;70.02;94025.13;5114751;28;20054;-45
2021/01/21 04:03:51;;;;;;;29.73;14.70;;;;;;;-4.76;70.92;94027.19;5114658;28;20024;-46
2021/01/21 04:06:16;;;;;;;26.75;11.43;;;;;;;-4.95;70.95;94028.97;5114641;28;20112;-45
2021/01/21 04:08:42;;;;;;;19.33;9.43;;;;;;;-4.88;70.86;94030.69;5114795;28;20035;-47
2021/01/21 04:11:07;;;;;;;25.77;9.82;;;;;;;-4.81;70.79;94036.56;5114653;28;20496;-44
2021/01/21 04:13:33;;;;;;;23.02;9.20;;;;;;;-4.64;71.31;94029.09;5114403;28;20115;-45
2021/01/21 04:15:58;;;;;;;15.88;8.57;;;;;;;-4.78;71.03;94034.94;5114702;28;20020;-46
2021/01/21 04:18:24;;;;;;;29.25;12.57;;;;;;;-4.63;70.04;94025.94;5114472;28;20024;-44
2021/01/21 04:20:49;;;;;;;39.53;18.42;;;;;;;-4.65;70.83;94044.50;5114528;28;20107;-44
2021/01/21 04:23:14;;;;;;;45.83;20.20;;;;;;;-4.55;71.99;94028.41;5114343;28;20098;-45
2021/01/21 04:25:40;;;;;;;49.97;20.10;;;;;;;-4.47;71.37;94033.09;5114243;28;20491;-44
2021/01/21 04:28:05;;;;;;;47.45;19.65;;;;;;;-4.52;72.00;94035.59;5114363;28;20024;-44
2021/01/21 04:30:31;;;;;;;44.47;19.67;;;;;;;-4.37;71.36;94039.28;5114023;28;20054;-45
2021/01/21 04:32:56;;;;;;;57.85;23.73;;;;;;;-4.47;71.16;94038.50;5114101;28;20026;-44
2021/01/21 04:35:22;;;;;;;58.67;22.80;;;;;;;-4.57;71.81;94046.94;5114047;28;20111;-46
2021/01/21 04:37:47;;;;;;;56.83;23.63;;;;;;;-4.67;72.11;94052.25;5114092;28;20080;-45
2021/01/21 04:40:13;;;;;;;76.57;31.50;;;;;;;-4.87;71.65;94032.94;5113892;28;20019;-44
2021/01/21 04:42:39;;;;;;;80.45;33.35;;;;;;;-4.84;71.84;94056.31;5114069;28;20023;-45
2021/01/21 04:45:06;;;;;;;60.58;25.90;;;;;;;-5.03;73.42;94062.72;5113784;28;20039;-45
2021/01/21 04:47:32;;;;;;;57.80;25.40;;;;;;;-4.98;74.54;94062.13;5113704;28;20027;-43
2021/01/21 04:49:58;;;;;;;46.97;21.40;;;;;;;-4.73;73.24;94055.94;5113976;28;20140;-45
2021/01/21 04:52:25;;;;;;;41.45;19.33;;;;;;;-4.69;73.25;94062.72;5112533;28;20515;-45
2021/01/21 04:55:03;;;;;;;62.85;21.90;;;;;;;-4.63;73.02;94060.22;5112608;28;20026;-44
2021/01/21 04:57:45;;;;;;;41.55;17.65;;;;;;;-4.51;73.42;94053.28;5113715;28;20431;-45
2021/01/21 05:00:12;;;;;;;42.03;17.25;;;;;;;-4.42;72.62;94050.66;5112387;28;20484;-44
2021/01/21 05:02:39;;;;;;;47.35;17.80;;;;;;;-4.29;71.26;94049.41;5112595;28;20020;-45
2021/01/21 05:05:09;;;;;;;39.13;18.77;;;;;;;-4.32;71.16;94057.59;5111593;28;20556;-46
2021/01/21 05:07:37;;;;;;;42.95;19.40;;;;;;;-4.23;71.86;94053.03;5113385;28;20515;-45
2021/01/21 05:10:03;;;;;;;57.95;22.88;;;;;;;-4.13;71.41;94051.16;5112273;28;20096;-46
2021/01/21 05:12:28;;;;;;;69.28;29.48;;;;;;;-4.18;71.21;94043.63;5113524;28;20035;-45
2021/01/21 05:14:53;;;;;;;62.50;30.17;;;;;;;-4.19;71.82;94048.28;5113278;28;20050;-46
2021/01/21 05:17:19;;;;;;;76.07;34.95;;;;;;;-4.25;72.24;94044.66;5104387;28;20401;-46
2021/01/21 05:19:48;;;;;;;79.45;32.88;;;;;;;-4.10;70.67;94040.25;5113288;27;20031;-45
2021/01/21 05:22:15;;;;;;;68.20;28.67;;;;;;;-4.09;71.17;94046.38;5113192;28;20032;-46
2021/01/21 05:24:43;;;;;;;54.85;23.23;;;;;;;-4.10;70.33;94042.19;5113049;28;20034;-47
2021/01/21 05:27:08;;;;;;;49.97;21.43;;;;;;;-4.22;71.02;94029.53;5113199;28;20019;-44
2021/01/21 05:29:34;;;;;;;56.95;22.45;;;;;;;-4.30;71.80;94039.06;5111644;28;20278;-45
2021/01/21 05:32:00;;;;;;;50.60;21.50;;;;;;;-4.64;72.66;94029.09;5113047;28;20114;-44
2021/01/21 05:34:25;;;;;;;67.00;31.48;;;;;;;-4.85;73.08;94040.59;5113003;28;20046;-44
2021/01/21 05:36:51;;;;;;;55.92;27.40;;;;;;;-4.90;73.25;94036.50;5111781;28;20015;-46
2021/01/21 05:39:17;;;;;;;66.03;29.02;;;;;;;-4.72;73.02;94031.25;5097019;28;20408;-45
2021/01/21 05:41:43;;;;;;;50.45;24.42;;;;;;;-4.86;73.99;94039.84;5092576;28;20044;-45
2021/01/21 05:44:08;;;;;;;51.17;22.70;;;;;;;-4.69;74.07;94029.63;5103407;28;20044;-46
2021/01/21 05:46:35;;;;;;;47.45;19.70;;;;;;;-4.84;73.86;94028.63;5106867;28;20022;-46
2021/01/21 05:49:01;;;;;;;42.58;20.73;;;;;;;-4.69;73.80;94027.69;5111928;28;20023;-45
2021/01/21 05:51:28;;;;;;;47.63;22.85;;;;;;;-4.62;72.50;94032.09;5112627;28;20080;-44
2021/01/21 05:53:54;;;;;;;38.03;19.08;;;;;;;-4.71;73.34;94019.31;5112498;28;20476;-45
2021/01/21 05:56:22;;;;;;;55.53;25.23;;;;;;;-4.53;72.52;94020.63;5100125;28;20808;-46
2021/01/21 05:58:54;;;;;;;55.10;23.85;;;;;;;-4.39;72.05;94023.56;5092092;28;20507;-45
2021/01/21 06:01:21;;;;;;;66.13;26.60;;;;;;;-4.30;72.40;94022.88;5092244;28;20047;-45
2021/01/21 06:03:47;;;;;;;71.53;28.00;;;;;;;-4.33;72.62;94027.19;5091358;28;20020;-48
2021/01/21 06:06:12;;;;;;;67.10;30.35;;;;;;;-4.29;71.70;94029.78;5092117;28;20028;-44
2021/01/21 06:08:40;;;;;;;71.03;29.05;;;;;;;-4.52;72.46;94022.13;5106855;28;20042;-44
2021/01/21 06:11:07;;;;;;;83.80;33.97;;;;;;;-4.44;72.87;94026.09;5098346;28;20506;-45
2021/01/21 06:13:42;;;;;;;99.22;40.67;;;;;;;-4.78;73.84;94046.47;5091287;28;20412;-43
2021/01/21 06:16:08;;;;;;;91.47;35.60;;;;;;;-4.66;74.08;94039.56;5091799;28;20539;-45
2021/01/21 06:18:34;;;;;;;78.72;31.13;;;;;;;-4.52;73.48;94035.59;5091744;28;20024;-44
2021/01/21 06:21:01;;;;;;;89.03;40.10;;;;;;;-4.71;74.06;94019.31;5091779;28;20108;-44
2021/01/21 06:23:27;;;;;;;96.22;40.65;;;;;;;-4.46;73.69;94045.38;5091981;28;20059;-44
2021/01/21 06:25:54;;;;;;;87.28;37.28;;;;;;;-4.36;73.37;94049.66;5091779;28;20020;-44
2021/01/21 06:28:21;;;;;;;63.92;28.92;;;;;;;-4.33;72.61;94034.56;5101356;28;20031;-46
2021/01/21 06:30:52;;;;;;;70.22;30.65;;;;;;;-4.28;72.42;94056.28;5112001;28;20039;-46
2021/01/21 06:33:22;;;;;;;98.35;45.42;;;;;;;-4.37;72.75;94050.06;5097012;28;20060;-43
2021/01/21 06:35:55;;;;;;;81.72;39.35;;;;;;;-4.01;72.33;94047.63;5098386;28;20078;-43
2021/01/21 06:38:22;;;;;;;89.20;38.55;;;;;;;-4.03;72.91;94052.72;5091654;28;20036;-43
2021/01/21 06:40:51;;;;;;;91.88;39.95;;;;;;;-4.00;72.68;94055.28;5106031;28;20066;-44
2021/01/21 06:43:18;;;;;;;93.03;40.45;;;;;;;-3.87;72.78;94055.97;5111835;28;20051;-44
2021/01/21 06:45:44;;;;;;;100.32;42.78;;;;;;;-3.76;72.54;94057.50;5111754;28;20039;-46
2021/01/21 06:48:11;;;;;;;125.45;55.63;;;;;;;-3.48;72.74;94059.13;5111560;28;20062;-44
2021/01/21 06:50:38;;;;;;;81.35;38.17;;;;;;;-3.31;71.28;94058.44;5107004;28;20042;-45
2021/01/21 06:53:06;;;;;;;89.72;42.72;;;;;;;-3.23;70.95;94054.25;5100187;28;20023;-44
2021/01/21 06:55:35;;;;;;;112.70;45.60;;;;;;;-3.07;70.24;94051.31;5098478;28;20498;-44
2021/01/21 06:58:02;;;;;;;126.75;52.75;;;;;;;-2.92;69.69;94054.19;5097725;28;20366;-46
2021/01/21 07:00:33;;;;;;;137.32;58.08;;;;;;;-2.88;68.79;94054.06;5100413;28;20559;-44
2021/01/21 07:02:59;;;;;;;130.18;53.97;;;;;;;-2.80;68.70;94052.56;5096288;28;20070;-47
2021/01/21 07:05:25;;;;;;;112.28;50.83;;;;;;;-2.76;68.72;94069.38;5098223;28;20055;-44
2021/01/21 07:07:56;;;;;;;99.75;49.35;;;;;;;-2.52;68.56;94068.38;5100261;28;20527;-44
2021/01/21 07:10:23;;;;;;;110.68;46.70;;;;;;;-2.52;68.57;94073.78;5101819;28;20423;-44
2021/01/21 07:12:49;;;;;;;106.93;48.55;;;;;;;-2.31;68.58;94069.41;5110656;28;20031;-44
2021/01/21 07:15:16;;;;;;;90.28;42.75;;;;;;;-2.51;68.64;94052.88;5110684;28;20424;-45
2021/01/21 07:17:42;;;;;;;91.28;40.13;;;;;;;-2.45;69.20;94064.63;5110945;28;20062;-45
2021/01/21 07:20:08;;;;;;;102.45;47.42;;;;;;;-2.24;69.27;94068.38;5110585;28;20063;-46
2021/01/21 07:22:33;;;;;;;139.50;62.28;;;;;;;-2.24;69.32;94071.06;5110404;28;20044;-45
2021/01/21 07:25:01;;;;;;;148.15;63.83;;;;;;;-2.07;68.76;94074.97;5095181;28;20516;-45
2021/01/21 07:27:29;;;;;;;64.55;31.83;;;;;;;-1.83;68.68;94073.13;5094086;28;20028;-45
2021/01/21 07:30:35;;;;;;;62.05;25.90;;;;;;;-2.10;69.04;94067.78;5095396;28;20048;-45
2021/01/21 07:33:26;;;;;;;61.80;32.30;;;;;;;-1.72;68.99;94073.41;5054815;28;20068;-44
2021/01/21 07:35:52;;;;;;;43.83;20.42;;;;;;;-1.36;67.83;94072.56;5072407;28;20078;-46
2021/01/21 07:38:45;;;;;;;28.75;13.60;;;;;;;-1.09;67.06;94067.03;5097162;28;20074;-44
2021/01/21 07:41:42;;;;;;;29.00;14.52;;;;;;;-0.78;66.24;94064.78;5115010;28;20035;-45
2021/01/21 07:44:09;;;;;;;34.05;16.33;;;;;;;-0.56;66.02;94072.63;5107339;28;20019;-45
2021/01/21 07:46:34;;;;;;;30.80;15.88;;;;;;;-0.52;65.32;94071.22;5114838;28;20031;-46
2021/01/21 07:49:22;;;;;;;24.10;13.85;;;;;;;-0.46;65.91;94061.25;5115130;28;20028;-44
2021/01/21 07:52:01;;;;;;;22.52;12.18;;;;;;;-0.63;66.55;94060.16;5114573;28;20020;-44
2021/01/21 07:54:48;;;;;;;23.15;12.60;;;;;;;-0.33;65.79;94063.72;5111903;28;20046;-45
2021/01/21 07:57:20;;;;;;;35.63;18.00;;;;;;;-0.27;66.84;94075.44;5114857;28;20031;-44
2021/01/21 07:59:56;;;;;;;23.17;13.80;;;;;;;-0.15;66.40;94060.84;5114988;28;20035;-44
2021/01/21 08:02:22;;;;;;;24.02;15.05;;;;;;;-0.28;66.95;94058.38;5114816;27;20031;-45
2021/01/21 08:04:58;;;;;;;23.65;13.40;;;;;;;0.29;66.49;94063.63;5114734;28;20024;-45
2021/01/21 08:07:24;;;;;;;29.90;15.38;;;;;;;0.72;65.03;94057.44;5094297;28;20036;-45
2021/01/21 08:10:05;;;;;;;32.13;16.77;;;;;;;1.22;63.43;94067.09;5094271;28;20085;-45
2021/01/21 08:12:31;;;;;;;32.28;16.08;;;;;;;0.84;63.76;94056.41;5094088;28;20485;-44
2021/01/21 08:14:57;;;;;;;34.17;19.23;;;;;;;1.26;63.79;94070.34;5094141;28;20031;-44
2021/01/21 08:17:22;;;;;;;29.40;16.23;;;;;;;1.86;62.16;94072.38;5094096;28;20030;-43
2021/01/21 08:19:47;;;;;;;31.88;17.67;;;;;;;2.10;60.66;94066.72;5094218;28;20036;-46
2021/01/21 08:22:13;;;;;;;30.15;15.32;;;;;;;2.03;61.12;94062.44;5092936;28;20486;-44
2021/01/21 08:25:01;;;;;;;19.35;11.57;;;;;;;2.25;60.16;94070.09;5093858;28;20088;-44
2021/01/21 08:27:43;;;;;;;21.00;9.32;;;;;;;1.82;62.50;94063.66;5093884;28;20036;-44
2021/01/21 08:30:20;;;;;;;32.05;17.60;;;;;;;2.26;60.95;94057.94;5093605;28;20048;-45
2021/01/21 08:32:50;;;;;;;72.25;33.90;;;;;;;2.62;60.39;94059.28;5104131;28;20052;-45
2021/01/21 08:35:19;;;;;;;22.45;14.63;;;;;;;3.15;60.09;94064.16;5111775;28;20023;-45
2021/01/21 08:37:45;;;;;;;26.38;14.63;;;;;;;3.72;58.85;94059.28;5112301;28;20035;-46
2021/01/21 08:40:11;;;;;;;25.10;15.55;;;;;;;4.16;57.30;94064.91;5114114;28;20031;-46
2021/01/21 08:42:37;;;;;;;25.83;16.60;;;;;;;4.26;56.89;94060.72;5114036;28;20416;-46
2021/01/21 08:45:03;;;;;;;23.52;15.70;;;;;;;4.74;55.88;94057.06;5113892;28;20072;-47
2021/01/21 08:47:48;;;;;;;30.85;17.05;;;;;;;5.55;54.35;94059.50;5113593;28;20073;-48
2021/01/21 08:50:16;;;;;;;28.48;17.00;;;;;;;6.41;51.14;94041.78;5114111;28;20481;-47
2021/01/21 08:52:59;;;;;;;32.15;17.98;;;;;;;6.70;49.94;94052.06;5113702;28;20476;-47
2021/01/21 08:55:42;;;;;;;91.15;43.72;;;;;;;6.94;48.86;94029.44;5113799;28;20030;-47
2021/01/21 08:58:08;;;;;;;57.40;32.05;;;;;;;7.16;48.99;94035.50;5113648;28;20447;-47
2021/01/21 09:00:35;;;;;;;73.85;38.08;;;;;;;7.13;49.68;94044.75;5113598;28;20472;-47
2021/01/21 09:03:00;;;;;;;47.50;24.70;;;;;;;7.47;48.47;94017.72;5113723;28;20028;-45
2021/01/21 09:05:27;;;;;;;44.80;24.55;;;;;;;7.98;48.26;94033.16;5113347;28;20583;-46
2021/01/21 09:08:02;;;;;;;24.30;16.55;;;;;;;7.73;47.62;94025.47;5113407;28;20031;-45
2021/01/21 09:10:45;;;;;;;45.15;27.27;;;;;;;7.69;48.86;94025.00;5113423;28;20152;-48
2021/01/21 09:13:11;;;;;;;38.28;24.02;;;;;;;8.32;47.96;94026.00;5113317;28;20477;-49
2021/01/21 09:15:55;;;;;;;38.63;24.08;;;;;;;8.91;47.12;94016.66;5113418;28;20023;-47
2021/01/21 09:18:21;;;;;;;46.47;24.70;;;;;;;8.93;46.37;94016.88;5113410;28;20027;-46
2021/01/21 09:20:47;;;;;;;49.97;27.30;;;;;;;9.02;46.65;94008.22;5113267;28;20480;-46
2021/01/21 09:23:19;;;;;;;45.05;26.88;;;;;;;8.95;46.06;94011.59;5113137;27;20031;-46
2021/01/21 09:25:44;;;;;;;43.47;24.08;;;;;;;9.25;46.07;94008.59;5113187;28;20028;-47
2021/01/21 09:28:11;;;;;;;42.50;25.58;;;;;;;9.15;45.89;94011.03;5112966;28;20031;-47
2021/01/21 09:30:37;;;;;;;33.03;19.95;;;;;;;8.92;45.79;94015.38;5101692;28;20059;-46
2021/01/21 09:33:03;;;;;;;37.58;24.48;;;;;;;8.79;45.97;94011.84;5102161;28;20415;-45
2021/01/21 09:35:28;;;;;;;32.33;19.83;;;;;;;8.44;45.86;93990.84;5112635;28;20026;-48
2021/01/21 09:37:55;;;;;;;34.60;21.38;;;;;;;8.38;47.40;94007.41;5101102;28;20026;-46
2021/01/21 09:40:39;;;;;;;47.30;24.52;;;;;;;8.46;47.52;94004.06;5102366;28;20055;-45
2021/01/21 09:43:05;;;;;;;37.88;21.08;;;;;;;8.54;47.34;94002.94;5103039;28;20019;-45
2021/01/21 09:45:31;;;;;;;27.83;17.20;;;;;;;8.39;47.98;93999.91;5101469;28;20385;-46
2021/01/21 09:47:57;;;;;;;24.45;15.90;;;;;;;8.20;47.82;93983.38;5100630;28;20032;-45
2021/01/21 09:50:24;;;;;;;24.75;16.00;;;;;;;7.97;49.24;93998.66;5101006;28;20085;-46
2021/01/21 09:52:49;;;;;;;28.27;15.82;;;;;;;8.30;49.02;93997.53;5100905;28;20110;-46
2021/01/21 09:55:15;;;;;;;25.00;14.77;;;;;;;8.17;48.49;93986.41;5100776;28;20107;-46
2021/01/21 09:57:40;;;;;;;23.90;14.13;;;;;;;8.16;49.03;93991.19;5100883;28;20469;-46
2021/01/21 10:00:12;;;;;;;25.50;12.90;;;;;;;8.19;48.25;93981.13;5103457;28;20024;-46
2021/01/21 10:02:37;;;;;;;18.27;11.43;;;;;;;7.65;48.75;93967.56;5103248;28;20020;-46
2021/01/21 10:05:04;;;;;;;49.03;22.25;;;;;;;7.77;49.36;93984.69;5112390;28;20115;-46
2021/01/21 10:07:29;;;;;;;26.48;15.40;;;;;;;7.99;49.58;93987.16;5112042;28;20028;-46
2021/01/21 10:09:55;;;;;;;22.92;12.30;;;;;;;7.97;48.57;93978.69;5111457;28;20028;-47
2021/01/21 10:12:20;;;;;;;19.83;11.48;;;;;;;7.89;49.06;93983.28;5110977;28;20031;-47
2021/01/21 10:14:46;;;;;;;22.40;12.20;;;;;;;8.02;48.60;93969.63;5111262;28;20496;-51
2021/01/21 10:17:11;;;;;;;19.65;10.98;;;;;;;8.10;49.08;93974.00;5111728;28;20035;-47
2021/01/21 10:19:37;;;;;;;16.48;9.65;;;;;;;8.05;49.83;93974.09;5111573;28;20107;-48
2021/01/21 10:22:05;;;;;;;21.13;11.60;;;;;;;8.14;49.56;93968.94;5111816;28;20488;-47
2021/01/21 10:24:31;;;;;;;25.27;15.00;;;;;;;8.18;49.04;93972.16;5111187;28;20395;-47
2021/01/21 10:26:56;;;;;;;53.22;26.48;;;;;;;7.75;50.18;93967.97;5108828;28;20110;-46
2021/01/21 10:29:22;;;;;;;57.35;31.90;;;;;;;8.03;49.65;93963.63;5098450;28;20036;-46
2021/01/21 10:31:47;;;;;;;32.70;17.02;;;;;;;8.39;50.09;93958.63;5103834;28;20020;-47
2021/01/21 10:34:13;;;;;;;28.58;16.17;;;;;;;8.58;49.29;93961.34;5094374;28;20412;-45
2021/01/21 10:36:38;;;;;;;24.60;14.73;;;;;;;8.76;49.01;93963.34;5106460;28;20034;-50
2021/01/21 10:39:04;;;;;;;26.25;14.90;;;;;;;8.83;48.86;93946.22;5104365;28;20048;-46
2021/01/21 10:41:30;;;;;;;25.40;13.60;;;;;;;9.00;48.41;93949.44;5091659;28;20028;-48
2021/01/21 10:43:56;;;;;;;20.17;11.63;;;;;;;9.17;48.04;93949.88;5091455;28;20097;-47
2021/01/21 10:46:21;;;;;;;17.38;11.10;;;;;;;9.36;47.07;93947.03;5091426;28;20067;-49
2021/01/21 10:48:46;;;;;;;20.95;12.52;;;;;;;9.55;46.96;93948.41;5091652;28;20056;-49
2021/01/21 10:51:12;;;;;;;25.35;13.13;;;;;;;9.59;46.21;93934.34;5091502;28;20122;-49
2021/01/21 10:53:37;;;;;;;31.92;15.63;;;;;;;9.67;46.21;93930.41;5091114;28;20070;-50
2021/01/21 10:56:03;;;;;;;27.08;17.33;;;;;;;9.82;46.56;93935.38;5091458;28;20065;-50
2021/01/21 10:58:29;;;;;;;34.10;18.67;;;;;;;9.83;45.93;93923.81;5091217;28;20119;-49
2021/01/21 11:00:54;;;;;;;32.70;18.23;;;;;;;10.03;46.02;93927.91;5094738;28;20115;-47
2021/01/21 11:03:20;;;;;;;29.73;12.73;;;;;;;10.13;45.31;93929.00;5095538;28;20497;-52
2021/01/21 11:05:45;;;;;;;13.80;9.68;;;;;;;9.93;44.98;93924.88;5095304;28;20062;-50
2021/01/21 11:08:11;;;;;;;19.58;11.70;;;;;;;9.43;45.96;93922.34;5095398;28;20569;-49
2021/01/21 11:10:38;;;;;;;19.10;11.23;;;;;;;9.60;46.46;93916.50;5110809;28;20032;-48
2021/01/21 11:13:04;;;;;;;18.05;10.15;;;;;;;9.72;46.12;93910.25;5115762;28;20118;-46
2021/01/21 11:15:29;;;;;;;24.52;14.55;;;;;;;9.71;45.82;93908.03;5115849;28;20016;-47
2021/01/21 11:17:55;;;;;;;21.80;12.48;;;;;;;9.81;46.07;93903.56;5115555;28;20480;-48
2021/01/21 11:20:20;;;;;;;20.80;11.50;;;;;;;9.84;46.09;93894.22;5115534;28;20028;-47
2021/01/21 11:22:46;;;;;;;21.73;11.73;;;;;;;9.89;46.73;93896.88;5115576;28;20027;-48
2021/01/21 11:25:12;;;;;;;14.52;9.30;;;;;;;9.85;45.88;93895.72;5115337;28;20105;-47